Airfield :
LOGIN :

Register | Disclaimer

   EN    FR    IT 

 










Legend :    VFR   Marginal VFR   IFR   Intensive IFR   Very Intensive IFR
Visi :
Ceiling :
>= 8 km
>= 3000ft
5 to 8 km
1000 to 3000 ft
1500m to 5 km
500 to 1000 ft
800 to 1500m
200 to 500 ft
< 800m
< 200 ft
Symbols :   Thunderstorms  Fog  Heavy snow  Heavy precipitations  Wind > 20 kt
SIGMETs :     Misc.  Thunderstorms  Icing  Turbulence  Mountain Waves  Volcanic Ashes






- Airport Elevation : 782 ft
- IATA code : BGY


LIME - Orio al Serio International - Bergamo

CURRENT METAR :
  • 200020Z 02003KT 9999 BKN040 16/15 Q1017 NOSIG

EXPIRED METARs :
  • 192350Z 03004KT 9999 BKN040 16/15 Q1016 NOSIG
  • 192320Z 03004KT 9999 BKN045 16/15 Q1016 NOSIG
  • 192250Z 04005KT 9999 BKN045 16/15 Q1016 NOSIG
  • 192220Z 04005KT 9999 BKN045 16/15 Q1016 NOSIG
  • 192150Z 02005KT 9999 BKN045 16/15 Q1016 RERA NOSIG

TAF TAF LIME
Valid from the 20 at 00:00 until the 21 at 00:00 UTC


192300Z 2000/2024 VRB05KT 7000 SCT025 BKN050
TEMPO 2018/2024 4000 TSRA



MET'MAP, your aeronautical weather chart ! - Copyright ORBIFLY December 2007 - Disclaimer

ORBIFLY MET'MAP TEAM :

Programming & Development : Alexandra Zaïnal
Concept & Development : Baudouin d'Aumeries
Co-Development & Prog : Marc-Olivier Méhu
Technical & hardware support : Manuel Goepfert

Contact : metmap@orbifly.com




SOURCES & CREDITS :

   NOAA